sensor_id;sensor_type;location;lat;lon;timestamp;temperature;humidity
20246;DHT22;10281;54.406;18.556;2022-12-07T00:01:03;3.40;99.90
20246;DHT22;10281;54.406;18.556;2022-12-07T00:03:24;3.40;99.90
20246;DHT22;10281;54.406;18.556;2022-12-07T00:05:51;3.50;99.90
20246;DHT22;10281;54.406;18.556;2022-12-07T00:08:17;3.50;99.90
20246;DHT22;10281;54.406;18.556;2022-12-07T00:10:44;3.40;99.90
20246;DHT22;10281;54.406;18.556;2022-12-07T00:13:11;3.40;99.90
20246;DHT22;10281;54.406;18.556;2022-12-07T00:15:37;3.40;99.90
20246;DHT22;10281;54.406;18.556;2022-12-07T00:18:04;3.40;99.90
20246;DHT22;10281;54.406;18.556;2022-12-07T00:20:31;3.40;99.90
20246;DHT22;10281;54.406;18.556;2022-12-07T00:22:57;3.40;99.90
20246;DHT22;10281;54.406;18.556;2022-12-07T00:25:24;3.40;99.90
20246;DHT22;10281;54.406;18.556;2022-12-07T00:27:52;3.40;99.90
20246;DHT22;10281;54.406;18.556;2022-12-07T00:30:22;3.40;99.90
20246;DHT22;10281;54.406;18.556;2022-12-07T00:32:50;3.40;99.90
20246;DHT22;10281;54.406;18.556;2022-12-07T00:35:16;3.40;99.90
20246;DHT22;10281;54.406;18.556;2022-12-07T00:37:43;3.50;99.90
20246;DHT22;10281;54.406;18.556;2022-12-07T00:40:10;3.40;99.90
20246;DHT22;10281;54.406;18.556;2022-12-07T00:42:37;3.50;99.90
20246;DHT22;10281;54.406;18.556;2022-12-07T00:45:07;3.40;99.90
20246;DHT22;10281;54.406;18.556;2022-12-07T00:47:34;3.40;99.90
20246;DHT22;10281;54.406;18.556;2022-12-07T00:50:00;3.50;99.90
20246;DHT22;10281;54.406;18.556;2022-12-07T00:52:27;3.50;99.90
20246;DHT22;10281;54.406;18.556;2022-12-07T00:54:53;3.40;99.90
20246;DHT22;10281;54.406;18.556;2022-12-07T00:57:20;3.50;99.90
20246;DHT22;10281;54.406;18.556;2022-12-07T00:59:47;3.50;99.90
20246;DHT22;10281;54.406;18.556;2022-12-07T01:02:14;3.50;99.90
20246;DHT22;10281;54.406;18.556;2022-12-07T01:04:41;3.50;99.90
20246;DHT22;10281;54.406;18.556;2022-12-07T01:07:08;3.50;99.90
20246;DHT22;10281;54.406;18.556;2022-12-07T01:09:34;3.50;99.90
20246;DHT22;10281;54.406;18.556;2022-12-07T01:12:01;3.60;99.90
20246;DHT22;10281;54.406;18.556;2022-12-07T01:14:28;3.60;99.90
20246;DHT22;10281;54.406;18.556;2022-12-07T01:16:55;3.60;99.90
20246;DHT22;10281;54.406;18.556;2022-12-07T01:19:21;3.70;99.90
20246;DHT22;10281;54.406;18.556;2022-12-07T01:21:48;3.60;99.90
20246;DHT22;10281;54.406;18.556;2022-12-07T01:24:15;3.60;99.90
20246;DHT22;10281;54.406;18.556;2022-12-07T01:26:41;3.60;99.90
20246;DHT22;10281;54.406;18.556;2022-12-07T01:29:08;3.60;99.90
20246;DHT22;10281;54.406;18.556;2022-12-07T01:31:34;3.60;99.90
20246;DHT22;10281;54.406;18.556;2022-12-07T01:34:01;3.60;99.90
20246;DHT22;10281;54.406;18.556;2022-12-07T01:36:31;3.70;99.90
20246;DHT22;10281;54.406;18.556;2022-12-07T01:39:00;3.70;99.90
20246;DHT22;10281;54.406;18.556;2022-12-07T01:41:30;3.70;99.90
20246;DHT22;10281;54.406;18.556;2022-12-07T01:46:36;3.70;99.90
20246;DHT22;10281;54.406;18.556;2022-12-07T01:49:05;3.70;99.90
20246;DHT22;10281;54.406;18.556;2022-12-07T01:51:33;3.70;99.90
20246;DHT22;10281;54.406;18.556;2022-12-07T01:54:01;3.70;99.90
20246;DHT22;10281;54.406;18.556;2022-12-07T01:56:29;3.70;99.90
20246;DHT22;10281;54.406;18.556;2022-12-07T01:58:56;3.80;99.90
20246;DHT22;10281;54.406;18.556;2022-12-07T02:01:25;3.70;99.90
20246;DHT22;10281;54.406;18.556;2022-12-07T02:03:52;3.70;99.90
20246;DHT22;10281;54.406;18.556;2022-12-07T02:06:21;3.80;99.90
20246;DHT22;10281;54.406;18.556;2022-12-07T02:08:48;3.80;99.90
20246;DHT22;10281;54.406;18.556;2022-12-07T02:11:16;3.80;99.90
20246;DHT22;10281;54.406;18.556;2022-12-07T02:13:44;3.80;99.90
20246;DHT22;10281;54.406;18.556;2022-12-07T02:16:21;3.80;99.90
20246;DHT22;10281;54.406;18.556;2022-12-07T02:22:01;3.80;99.90
20246;DHT22;10281;54.406;18.556;2022-12-07T02:24:45;3.90;99.90
20246;DHT22;10281;54.406;18.556;2022-12-07T02:27:34;3.90;99.90
20246;DHT22;10281;54.406;18.556;2022-12-07T02:30:06;3.90;99.90
20246;DHT22;10281;54.406;18.556;2022-12-07T02:35:33;3.90;99.90
20246;DHT22;10281;54.406;18.556;2022-12-07T02:39:15;3.80;99.90
20246;DHT22;10281;54.406;18.556;2022-12-07T02:41:02;3.80;99.90
20246;DHT22;10281;54.406;18.556;2022-12-07T02:43:35;3.90;99.90
20246;DHT22;10281;54.406;18.556;2022-12-07T02:46:09;3.80;99.90
20246;DHT22;10281;54.406;18.556;2022-12-07T02:48:38;3.80;99.90
20246;DHT22;10281;54.406;18.556;2022-12-07T02:51:05;3.80;99.90
20246;DHT22;10281;54.406;18.556;2022-12-07T02:53:35;3.80;99.90
20246;DHT22;10281;54.406;18.556;2022-12-07T03:01:45;3.80;99.90
20246;DHT22;10281;54.406;18.556;2022-12-07T03:04:21;3.80;99.90
20246;DHT22;10281;54.406;18.556;2022-12-07T03:06:53;3.80;99.90
20246;DHT22;10281;54.406;18.556;2022-12-07T03:09:21;3.80;99.90
20246;DHT22;10281;54.406;18.556;2022-12-07T03:11:52;3.80;99.90
20246;DHT22;10281;54.406;18.556;2022-12-07T03:14:23;3.90;99.90
20246;DHT22;10281;54.406;18.556;2022-12-07T03:17:12;3.80;99.90
20246;DHT22;10281;54.406;18.556;2022-12-07T03:19:40;3.90;99.90
20246;DHT22;10281;54.406;18.556;2022-12-07T03:22:12;3.90;99.90
20246;DHT22;10281;54.406;18.556;2022-12-07T03:24:47;3.80;99.90
20246;DHT22;10281;54.406;18.556;2022-12-07T03:27:20;3.80;99.90
20246;DHT22;10281;54.406;18.556;2022-12-07T03:29:54;3.90;99.90
20246;DHT22;10281;54.406;18.556;2022-12-07T03:32:33;3.80;99.90
20246;DHT22;10281;54.406;18.556;2022-12-07T03:35:14;3.90;99.90
20246;DHT22;10281;54.406;18.556;2022-12-07T03:37:48;3.90;99.90
20246;DHT22;10281;54.406;18.556;2022-12-07T03:40:28;3.90;99.90
20246;DHT22;10281;54.406;18.556;2022-12-07T03:42:57;3.90;99.90
20246;DHT22;10281;54.406;18.556;2022-12-07T03:45:32;3.90;99.90
20246;DHT22;10281;54.406;18.556;2022-12-07T03:48:32;3.90;99.90
20246;DHT22;10281;54.406;18.556;2022-12-07T03:51:19;3.90;99.90
20246;DHT22;10281;54.406;18.556;2022-12-07T03:53:39;3.90;99.90
20246;DHT22;10281;54.406;18.556;2022-12-07T03:56:06;3.90;99.90
20246;DHT22;10281;54.406;18.556;2022-12-07T03:58:35;3.90;99.90
20246;DHT22;10281;54.406;18.556;2022-12-07T04:01:03;3.90;99.90
20246;DHT22;10281;54.406;18.556;2022-12-07T04:03:29;3.90;99.90
20246;DHT22;10281;54.406;18.556;2022-12-07T04:05:56;3.90;99.90
20246;DHT22;10281;54.406;18.556;2022-12-07T04:08:25;3.90;99.90
20246;DHT22;10281;54.406;18.556;2022-12-07T04:10:54;3.90;99.90
20246;DHT22;10281;54.406;18.556;2022-12-07T04:13:21;3.90;99.90
20246;DHT22;10281;54.406;18.556;2022-12-07T04:15:47;3.90;99.90
20246;DHT22;10281;54.406;18.556;2022-12-07T04:18:14;3.90;99.90
20246;DHT22;10281;54.406;18.556;2022-12-07T04:20:40;3.90;99.90
20246;DHT22;10281;54.406;18.556;2022-12-07T04:23:07;3.90;99.90
20246;DHT22;10281;54.406;18.556;2022-12-07T04:25:34;3.90;99.90
20246;DHT22;10281;54.406;18.556;2022-12-07T04:28:06;3.90;99.90
20246;DHT22;10281;54.406;18.556;2022-12-07T04:30:33;3.90;99.90
20246;DHT22;10281;54.406;18.556;2022-12-07T04:32:59;3.90;99.90
20246;DHT22;10281;54.406;18.556;2022-12-07T04:35:26;3.90;99.90
20246;DHT22;10281;54.406;18.556;2022-12-07T04:37:53;3.90;99.90
20246;DHT22;10281;54.406;18.556;2022-12-07T04:40:19;3.90;99.90
20246;DHT22;10281;54.406;18.556;2022-12-07T04:42:46;4.00;99.90
20246;DHT22;10281;54.406;18.556;2022-12-07T04:45:12;4.00;99.90
20246;DHT22;10281;54.406;18.556;2022-12-07T04:47:39;4.00;99.90
20246;DHT22;10281;54.406;18.556;2022-12-07T04:50:06;4.00;99.90
20246;DHT22;10281;54.406;18.556;2022-12-07T04:52:39;4.00;99.90
20246;DHT22;10281;54.406;18.556;2022-12-07T04:55:05;4.10;99.90
20246;DHT22;10281;54.406;18.556;2022-12-07T04:57:32;4.10;99.90
20246;DHT22;10281;54.406;18.556;2022-12-07T05:00:05;4.10;99.90
20246;DHT22;10281;54.406;18.556;2022-12-07T05:02:31;4.10;99.90
20246;DHT22;10281;54.406;18.556;2022-12-07T05:05:05;4.10;99.90
20246;DHT22;10281;54.406;18.556;2022-12-07T05:07:38;4.20;99.90
20246;DHT22;10281;54.406;18.556;2022-12-07T05:10:05;4.20;99.90
20246;DHT22;10281;54.406;18.556;2022-12-07T05:12:32;4.20;99.90
20246;DHT22;10281;54.406;18.556;2022-12-07T05:15:05;4.20;99.90
20246;DHT22;10281;54.406;18.556;2022-12-07T05:17:31;4.20;99.90
20246;DHT22;10281;54.406;18.556;2022-12-07T05:20:02;4.20;99.90
20246;DHT22;10281;54.406;18.556;2022-12-07T05:22:28;4.20;99.90
20246;DHT22;10281;54.406;18.556;2022-12-07T05:24:55;4.20;99.90
20246;DHT22;10281;54.406;18.556;2022-12-07T05:27:22;4.20;99.90
20246;DHT22;10281;54.406;18.556;2022-12-07T05:29:53;4.20;99.90
20246;DHT22;10281;54.406;18.556;2022-12-07T05:32:19;4.20;99.90
20246;DHT22;10281;54.406;18.556;2022-12-07T05:34:46;4.20;99.90
20246;DHT22;10281;54.406;18.556;2022-12-07T05:37:14;4.30;99.90
20246;DHT22;10281;54.406;18.556;2022-12-07T05:39:44;4.30;99.90
20246;DHT22;10281;54.406;18.556;2022-12-07T05:42:17;4.30;99.90
20246;DHT22;10281;54.406;18.556;2022-12-07T05:44:50;4.30;99.90
20246;DHT22;10281;54.406;18.556;2022-12-07T05:47:17;4.30;99.90
20246;DHT22;10281;54.406;18.556;2022-12-07T05:49:49;4.20;99.90
20246;DHT22;10281;54.406;18.556;2022-12-07T05:52:16;4.20;99.90
20246;DHT22;10281;54.406;18.556;2022-12-07T05:54:46;4.20;99.90
20246;DHT22;10281;54.406;18.556;2022-12-07T05:57:13;4.20;99.90
20246;DHT22;10281;54.406;18.556;2022-12-07T05:59:39;4.20;99.90
20246;DHT22;10281;54.406;18.556;2022-12-07T06:02:13;4.30;99.90
20246;DHT22;10281;54.406;18.556;2022-12-07T06:04:46;4.30;99.90
20246;DHT22;10281;54.406;18.556;2022-12-07T06:07:19;4.30;99.90
20246;DHT22;10281;54.406;18.556;2022-12-07T06:09:49;4.30;99.90
20246;DHT22;10281;54.406;18.556;2022-12-07T06:12:15;4.30;99.90
20246;DHT22;10281;54.406;18.556;2022-12-07T06:14:47;4.30;99.90
20246;DHT22;10281;54.406;18.556;2022-12-07T06:17:20;4.30;99.90
20246;DHT22;10281;54.406;18.556;2022-12-07T06:19:46;4.30;99.90
20246;DHT22;10281;54.406;18.556;2022-12-07T06:22:13;4.30;99.90
20246;DHT22;10281;54.406;18.556;2022-12-07T06:24:40;4.30;99.90
20246;DHT22;10281;54.406;18.556;2022-12-07T06:27:07;4.30;99.90
20246;DHT22;10281;54.406;18.556;2022-12-07T06:29:34;4.30;99.90
20246;DHT22;10281;54.406;18.556;2022-12-07T06:32:00;4.20;99.90
20246;DHT22;10281;54.406;18.556;2022-12-07T06:34:27;4.20;99.90
20246;DHT22;10281;54.406;18.556;2022-12-07T06:36:54;4.20;99.90
20246;DHT22;10281;54.406;18.556;2022-12-07T06:39:24;4.10;99.90
20246;DHT22;10281;54.406;18.556;2022-12-07T06:41:51;4.00;99.90
20246;DHT22;10281;54.406;18.556;2022-12-07T06:44:19;4.00;99.90
20246;DHT22;10281;54.406;18.556;2022-12-07T06:46:46;4.00;99.90
20246;DHT22;10281;54.406;18.556;2022-12-07T06:49:14;3.90;99.90
20246;DHT22;10281;54.406;18.556;2022-12-07T06:51:41;3.90;99.90
20246;DHT22;10281;54.406;18.556;2022-12-07T06:54:10;3.90;99.90
20246;DHT22;10281;54.406;18.556;2022-12-07T06:56:37;3.80;99.90
20246;DHT22;10281;54.406;18.556;2022-12-07T06:59:05;3.80;99.90
20246;DHT22;10281;54.406;18.556;2022-12-07T07:01:33;3.80;99.90
20246;DHT22;10281;54.406;18.556;2022-12-07T07:04:00;3.90;99.90
20246;DHT22;10281;54.406;18.556;2022-12-07T07:06:26;3.80;99.90
20246;DHT22;10281;54.406;18.556;2022-12-07T07:08:54;3.80;99.90
20246;DHT22;10281;54.406;18.556;2022-12-07T07:11:21;3.70;99.90
20246;DHT22;10281;54.406;18.556;2022-12-07T07:13:47;3.80;99.90
20246;DHT22;10281;54.406;18.556;2022-12-07T07:16:14;3.70;99.90
20246;DHT22;10281;54.406;18.556;2022-12-07T07:18:41;3.70;99.90
20246;DHT22;10281;54.406;18.556;2022-12-07T07:21:07;3.70;99.90
20246;DHT22;10281;54.406;18.556;2022-12-07T07:23:34;3.70;99.90
20246;DHT22;10281;54.406;18.556;2022-12-07T07:26:01;3.70;99.90
20246;DHT22;10281;54.406;18.556;2022-12-07T07:28:27;3.70;99.90
20246;DHT22;10281;54.406;18.556;2022-12-07T07:30:54;3.70;99.90
20246;DHT22;10281;54.406;18.556;2022-12-07T07:33:20;3.70;99.90
20246;DHT22;10281;54.406;18.556;2022-12-07T07:35:47;3.60;99.90
20246;DHT22;10281;54.406;18.556;2022-12-07T07:38:14;3.60;99.90
20246;DHT22;10281;54.406;18.556;2022-12-07T07:40:40;3.60;99.90
20246;DHT22;10281;54.406;18.556;2022-12-07T07:43:07;3.60;99.90
20246;DHT22;10281;54.406;18.556;2022-12-07T07:45:34;3.60;99.90
20246;DHT22;10281;54.406;18.556;2022-12-07T07:48:00;3.60;99.90
20246;DHT22;10281;54.406;18.556;2022-12-07T07:50:28;3.60;99.90
20246;DHT22;10281;54.406;18.556;2022-12-07T07:52:56;3.60;99.90
20246;DHT22;10281;54.406;18.556;2022-12-07T07:55:23;3.60;99.90
20246;DHT22;10281;54.406;18.556;2022-12-07T07:57:50;3.60;99.90
20246;DHT22;10281;54.406;18.556;2022-12-07T08:00:17;3.60;99.90
20246;DHT22;10281;54.406;18.556;2022-12-07T08:02:44;3.70;99.90
20246;DHT22;10281;54.406;18.556;2022-12-07T08:05:12;3.60;99.90
20246;DHT22;10281;54.406;18.556;2022-12-07T08:07:39;3.70;99.90
20246;DHT22;10281;54.406;18.556;2022-12-07T08:10:07;3.70;99.90
20246;DHT22;10281;54.406;18.556;2022-12-07T08:12:39;3.70;99.90
20246;DHT22;10281;54.406;18.556;2022-12-07T08:15:08;3.80;99.90
20246;DHT22;10281;54.406;18.556;2022-12-07T08:17:35;3.80;99.90
20246;DHT22;10281;54.406;18.556;2022-12-07T08:20:01;3.70;99.90
20246;DHT22;10281;54.406;18.556;2022-12-07T08:22:28;3.80;99.90
20246;DHT22;10281;54.406;18.556;2022-12-07T08:24:55;3.80;99.90
20246;DHT22;10281;54.406;18.556;2022-12-07T08:27:22;3.80;99.90
20246;DHT22;10281;54.406;18.556;2022-12-07T08:29:56;3.80;99.90
20246;DHT22;10281;54.406;18.556;2022-12-07T08:32:23;3.90;99.90
20246;DHT22;10281;54.406;18.556;2022-12-07T08:34:55;3.90;99.90
20246;DHT22;10281;54.406;18.556;2022-12-07T08:37:22;3.90;99.90
20246;DHT22;10281;54.406;18.556;2022-12-07T08:39:55;3.90;99.90
20246;DHT22;10281;54.406;18.556;2022-12-07T08:42:22;4.00;99.90
20246;DHT22;10281;54.406;18.556;2022-12-07T08:44:57;4.00;99.90
20246;DHT22;10281;54.406;18.556;2022-12-07T08:47:24;4.00;99.90
20246;DHT22;10281;54.406;18.556;2022-12-07T08:49:52;4.00;99.90
20246;DHT22;10281;54.406;18.556;2022-12-07T08:52:20;4.00;99.90
20246;DHT22;10281;54.406;18.556;2022-12-07T08:54:48;4.10;99.90
20246;DHT22;10281;54.406;18.556;2022-12-07T08:57:15;4.00;99.90
20246;DHT22;10281;54.406;18.556;2022-12-07T08:59:42;4.10;99.90
20246;DHT22;10281;54.406;18.556;2022-12-07T09:02:08;4.10;99.90
20246;DHT22;10281;54.406;18.556;2022-12-07T09:04:35;4.10;99.90
20246;DHT22;10281;54.406;18.556;2022-12-07T09:07:02;4.10;99.90
20246;DHT22;10281;54.406;18.556;2022-12-07T09:09:29;4.10;99.90
20246;DHT22;10281;54.406;18.556;2022-12-07T09:11:56;4.10;99.90
20246;DHT22;10281;54.406;18.556;2022-12-07T09:14:23;4.10;99.90
20246;DHT22;10281;54.406;18.556;2022-12-07T09:16:50;4.10;99.90
20246;DHT22;10281;54.406;18.556;2022-12-07T09:19:17;4.10;99.90
20246;DHT22;10281;54.406;18.556;2022-12-07T09:21:43;4.10;99.90
20246;DHT22;10281;54.406;18.556;2022-12-07T09:24:12;4.10;99.90
20246;DHT22;10281;54.406;18.556;2022-12-07T09:26:38;4.00;99.90
20246;DHT22;10281;54.406;18.556;2022-12-07T09:29:06;4.10;99.90
20246;DHT22;10281;54.406;18.556;2022-12-07T09:31:32;4.10;99.90
20246;DHT22;10281;54.406;18.556;2022-12-07T09:34:01;4.10;99.90
20246;DHT22;10281;54.406;18.556;2022-12-07T09:36:28;4.10;99.90
20246;DHT22;10281;54.406;18.556;2022-12-07T09:38:55;4.10;99.90
20246;DHT22;10281;54.406;18.556;2022-12-07T09:41:23;4.10;99.90
20246;DHT22;10281;54.406;18.556;2022-12-07T09:43:50;4.10;99.90
20246;DHT22;10281;54.406;18.556;2022-12-07T09:46:19;4.10;99.90
20246;DHT22;10281;54.406;18.556;2022-12-07T09:48:48;4.10;99.90
20246;DHT22;10281;54.406;18.556;2022-12-07T09:51:18;4.10;99.90
20246;DHT22;10281;54.406;18.556;2022-12-07T09:53:46;4.20;99.90
20246;DHT22;10281;54.406;18.556;2022-12-07T09:56:15;4.10;99.90
20246;DHT22;10281;54.406;18.556;2022-12-07T09:58:42;4.10;99.90
20246;DHT22;10281;54.406;18.556;2022-12-07T10:01:13;4.10;99.90
20246;DHT22;10281;54.406;18.556;2022-12-07T10:03:48;4.20;99.90
20246;DHT22;10281;54.406;18.556;2022-12-07T10:06:12;4.30;99.90
20246;DHT22;10281;54.406;18.556;2022-12-07T10:08:39;4.40;99.90
20246;DHT22;10281;54.406;18.556;2022-12-07T10:11:07;4.40;99.90
20246;DHT22;10281;54.406;18.556;2022-12-07T10:13:39;4.40;99.90
20246;DHT22;10281;54.406;18.556;2022-12-07T10:16:07;4.50;99.90
20246;DHT22;10281;54.406;18.556;2022-12-07T10:18:38;4.40;99.90
20246;DHT22;10281;54.406;18.556;2022-12-07T10:21:17;4.40;99.90
20246;DHT22;10281;54.406;18.556;2022-12-07T10:26:38;4.40;99.90
20246;DHT22;10281;54.406;18.556;2022-12-07T10:29:16;4.30;99.90
20246;DHT22;10281;54.406;18.556;2022-12-07T10:31:45;4.30;99.90
20246;DHT22;10281;54.406;18.556;2022-12-07T10:34:23;4.30;99.90
20246;DHT22;10281;54.406;18.556;2022-12-07T10:36:51;4.30;99.90
20246;DHT22;10281;54.406;18.556;2022-12-07T10:39:20;4.40;99.90
20246;DHT22;10281;54.406;18.556;2022-12-07T10:41:57;4.40;99.90
20246;DHT22;10281;54.406;18.556;2022-12-07T10:44:28;4.30;99.90
20246;DHT22;10281;54.406;18.556;2022-12-07T10:47:23;4.30;99.90
20246;DHT22;10281;54.406;18.556;2022-12-07T10:50:29;4.40;99.90
20246;DHT22;10281;54.406;18.556;2022-12-07T10:52:51;4.40;99.90
20246;DHT22;10281;54.406;18.556;2022-12-07T10:55:54;4.40;99.90
20246;DHT22;10281;54.406;18.556;2022-12-07T11:03:53;4.30;99.90
20246;DHT22;10281;54.406;18.556;2022-12-07T11:06:27;4.30;99.90
20246;DHT22;10281;54.406;18.556;2022-12-07T11:09:08;4.30;99.90
20246;DHT22;10281;54.406;18.556;2022-12-07T11:11:35;4.30;99.90
20246;DHT22;10281;54.406;18.556;2022-12-07T11:16:48;4.40;99.90
20246;DHT22;10281;54.406;18.556;2022-12-07T11:19:39;4.40;99.90
20246;DHT22;10281;54.406;18.556;2022-12-07T11:22:13;4.40;99.90
20246;DHT22;10281;54.406;18.556;2022-12-07T11:25:20;4.40;99.90
20246;DHT22;10281;54.406;18.556;2022-12-07T11:31:28;4.30;99.90
20246;DHT22;10281;54.406;18.556;2022-12-07T11:33:46;4.30;99.90
20246;DHT22;10281;54.406;18.556;2022-12-07T11:36:37;4.40;99.90
20246;DHT22;10281;54.406;18.556;2022-12-07T11:39:22;4.30;99.90
20246;DHT22;10281;54.406;18.556;2022-12-07T11:41:50;4.20;99.90
20246;DHT22;10281;54.406;18.556;2022-12-07T11:44:28;4.20;99.90
20246;DHT22;10281;54.406;18.556;2022-12-07T11:46:59;4.20;99.90
20246;DHT22;10281;54.406;18.556;2022-12-07T11:52:04;4.10;99.90
20246;DHT22;10281;54.406;18.556;2022-12-07T11:54:35;4.10;99.90
20246;DHT22;10281;54.406;18.556;2022-12-07T11:57:07;4.10;99.90
20246;DHT22;10281;54.406;18.556;2022-12-07T11:59:39;4.00;99.90
20246;DHT22;10281;54.406;18.556;2022-12-07T12:02:13;4.00;99.90
20246;DHT22;10281;54.406;18.556;2022-12-07T12:07:21;3.80;99.90
20246;DHT22;10281;54.406;18.556;2022-12-07T12:10:06;3.90;99.90
20246;DHT22;10281;54.406;18.556;2022-12-07T12:13:01;3.90;99.90
20246;DHT22;10281;54.406;18.556;2022-12-07T12:15:37;3.90;99.90
20246;DHT22;10281;54.406;18.556;2022-12-07T12:18:27;3.90;99.90
20246;DHT22;10281;54.406;18.556;2022-12-07T12:20:57;3.90;99.90
20246;DHT22;10281;54.406;18.556;2022-12-07T12:23:29;3.80;99.90
20246;DHT22;10281;54.406;18.556;2022-12-07T12:25:58;3.80;99.90
20246;DHT22;10281;54.406;18.556;2022-12-07T12:28:35;3.90;99.90
20246;DHT22;10281;54.406;18.556;2022-12-07T12:31:37;3.90;99.90
20246;DHT22;10281;54.406;18.556;2022-12-07T12:36:54;3.90;99.90
20246;DHT22;10281;54.406;18.556;2022-12-07T12:39:20;3.90;99.90
20246;DHT22;10281;54.406;18.556;2022-12-07T12:41:53;3.90;99.90
20246;DHT22;10281;54.406;18.556;2022-12-07T12:44:40;3.90;99.90
20246;DHT22;10281;54.406;18.556;2022-12-07T12:52:49;3.90;99.90
20246;DHT22;10281;54.406;18.556;2022-12-07T12:55:18;3.90;99.90
20246;DHT22;10281;54.406;18.556;2022-12-07T12:58:21;3.90;99.90
20246;DHT22;10281;54.406;18.556;2022-12-07T13:00:19;3.90;99.90
20246;DHT22;10281;54.406;18.556;2022-12-07T13:02:54;3.80;99.90
20246;DHT22;10281;54.406;18.556;2022-12-07T13:05:26;3.90;99.90
20246;DHT22;10281;54.406;18.556;2022-12-07T13:08:00;3.90;99.90
20246;DHT22;10281;54.406;18.556;2022-12-07T13:10:33;3.80;99.90
20246;DHT22;10281;54.406;18.556;2022-12-07T13:13:29;3.70;99.90
20246;DHT22;10281;54.406;18.556;2022-12-07T13:15:55;3.80;99.90
20246;DHT22;10281;54.406;18.556;2022-12-07T13:18:42;3.90;99.90
20246;DHT22;10281;54.406;18.556;2022-12-07T13:21:41;3.90;99.90
20246;DHT22;10281;54.406;18.556;2022-12-07T13:24:10;3.80;99.90
20246;DHT22;10281;54.406;18.556;2022-12-07T13:26:42;3.80;99.90
20246;DHT22;10281;54.406;18.556;2022-12-07T13:29:16;3.70;99.90
20246;DHT22;10281;54.406;18.556;2022-12-07T13:31:46;3.80;99.90
20246;DHT22;10281;54.406;18.556;2022-12-07T13:34:28;3.70;99.90
20246;DHT22;10281;54.406;18.556;2022-12-07T13:36:56;3.70;99.90
20246;DHT22;10281;54.406;18.556;2022-12-07T13:39:25;3.70;99.90
20246;DHT22;10281;54.406;18.556;2022-12-07T13:41:55;3.70;99.90
20246;DHT22;10281;54.406;18.556;2022-12-07T13:44:24;3.70;99.90
20246;DHT22;10281;54.406;18.556;2022-12-07T13:46:57;3.80;99.90
20246;DHT22;10281;54.406;18.556;2022-12-07T13:49:27;3.70;99.90
20246;DHT22;10281;54.406;18.556;2022-12-07T13:51:55;3.70;99.90
20246;DHT22;10281;54.406;18.556;2022-12-07T13:54:23;3.80;99.90
20246;DHT22;10281;54.406;18.556;2022-12-07T13:56:51;3.80;99.90
20246;DHT22;10281;54.406;18.556;2022-12-07T13:59:24;3.80;99.90
20246;DHT22;10281;54.406;18.556;2022-12-07T14:01:53;3.70;99.90
20246;DHT22;10281;54.406;18.556;2022-12-07T14:04:29;3.70;99.90
20246;DHT22;10281;54.406;18.556;2022-12-07T14:06:56;3.70;99.90
20246;DHT22;10281;54.406;18.556;2022-12-07T14:09:25;3.70;99.90
20246;DHT22;10281;54.406;18.556;2022-12-07T14:11:53;3.60;99.90
20246;DHT22;10281;54.406;18.556;2022-12-07T14:14:23;3.60;99.90
20246;DHT22;10281;54.406;18.556;2022-12-07T14:16:57;3.60;99.90
20246;DHT22;10281;54.406;18.556;2022-12-07T14:22:08;3.50;99.90
20246;DHT22;10281;54.406;18.556;2022-12-07T14:24:42;3.50;99.90
20246;DHT22;10281;54.406;18.556;2022-12-07T14:27:16;3.40;99.90
20246;DHT22;10281;54.406;18.556;2022-12-07T14:29:43;3.40;99.90
20246;DHT22;10281;54.406;18.556;2022-12-07T14:32:28;3.40;99.90
20246;DHT22;10281;54.406;18.556;2022-12-07T14:34:57;3.30;99.90
20246;DHT22;10281;54.406;18.556;2022-12-07T14:37:24;3.40;99.90
20246;DHT22;10281;54.406;18.556;2022-12-07T14:39:51;3.40;99.90
20246;DHT22;10281;54.406;18.556;2022-12-07T14:42:18;3.30;99.90
20246;DHT22;10281;54.406;18.556;2022-12-07T14:44:45;3.30;99.90
20246;DHT22;10281;54.406;18.556;2022-12-07T14:47:12;3.30;99.90
20246;DHT22;10281;54.406;18.556;2022-12-07T14:49:38;3.30;99.90
20246;DHT22;10281;54.406;18.556;2022-12-07T14:52:08;3.30;99.90
20246;DHT22;10281;54.406;18.556;2022-12-07T14:54:35;3.30;99.90
20246;DHT22;10281;54.406;18.556;2022-12-07T14:57:01;3.30;99.90
20246;DHT22;10281;54.406;18.556;2022-12-07T14:59:28;3.30;99.90
20246;DHT22;10281;54.406;18.556;2022-12-07T15:01:54;3.30;99.90
20246;DHT22;10281;54.406;18.556;2022-12-07T15:04:21;3.30;99.90
20246;DHT22;10281;54.406;18.556;2022-12-07T15:06:57;3.20;99.90
20246;DHT22;10281;54.406;18.556;2022-12-07T15:09:23;3.20;99.90
20246;DHT22;10281;54.406;18.556;2022-12-07T15:11:50;3.20;99.90
20246;DHT22;10281;54.406;18.556;2022-12-07T15:14:17;3.10;99.90
20246;DHT22;10281;54.406;18.556;2022-12-07T15:16:44;3.20;99.90
20246;DHT22;10281;54.406;18.556;2022-12-07T15:19:16;3.10;99.90
20246;DHT22;10281;54.406;18.556;2022-12-07T15:21:43;3.10;99.90
20246;DHT22;10281;54.406;18.556;2022-12-07T15:24:11;3.10;99.90
20246;DHT22;10281;54.406;18.556;2022-12-07T15:26:39;3.10;99.90
20246;DHT22;10281;54.406;18.556;2022-12-07T15:29:06;3.00;99.90
20246;DHT22;10281;54.406;18.556;2022-12-07T15:31:33;2.90;99.90
20246;DHT22;10281;54.406;18.556;2022-12-07T15:34:00;3.00;99.90
20246;DHT22;10281;54.406;18.556;2022-12-07T15:36:29;3.00;99.90
20246;DHT22;10281;54.406;18.556;2022-12-07T15:38:56;3.00;99.90
20246;DHT22;10281;54.406;18.556;2022-12-07T15:41:24;2.90;99.90
20246;DHT22;10281;54.406;18.556;2022-12-07T15:43:51;2.90;99.90
20246;DHT22;10281;54.406;18.556;2022-12-07T15:46:23;2.90;99.90
20246;DHT22;10281;54.406;18.556;2022-12-07T15:48:50;2.90;99.90
20246;DHT22;10281;54.406;18.556;2022-12-07T15:51:16;3.00;99.90
20246;DHT22;10281;54.406;18.556;2022-12-07T15:53:43;3.00;99.90
20246;DHT22;10281;54.406;18.556;2022-12-07T15:56:09;3.00;99.90
20246;DHT22;10281;54.406;18.556;2022-12-07T15:58:36;3.00;99.90
20246;DHT22;10281;54.406;18.556;2022-12-07T16:01:13;3.00;99.90
20246;DHT22;10281;54.406;18.556;2022-12-07T16:03:39;3.00;99.90
20246;DHT22;10281;54.406;18.556;2022-12-07T16:06:06;3.10;99.90
20246;DHT22;10281;54.406;18.556;2022-12-07T16:08:33;3.10;99.90
20246;DHT22;10281;54.406;18.556;2022-12-07T16:11:05;3.00;99.90
20246;DHT22;10281;54.406;18.556;2022-12-07T16:13:33;3.10;99.90
20246;DHT22;10281;54.406;18.556;2022-12-07T16:16:07;3.00;99.90
20246;DHT22;10281;54.406;18.556;2022-12-07T16:18:34;3.00;99.90
20246;DHT22;10281;54.406;18.556;2022-12-07T16:21:00;2.90;99.90
20246;DHT22;10281;54.406;18.556;2022-12-07T16:23:27;3.00;99.90
20246;DHT22;10281;54.406;18.556;2022-12-07T16:25:54;3.00;99.90
20246;DHT22;10281;54.406;18.556;2022-12-07T16:28:21;3.00;99.90
20246;DHT22;10281;54.406;18.556;2022-12-07T16:30:47;3.00;99.90
20246;DHT22;10281;54.406;18.556;2022-12-07T16:33:14;3.00;99.90